Time;durP1;ratioP1;P1;durP2;ratioP2;P2;SDS_P1;SDS_P2;PMS_P1;PMS_P2;Temp;Humidity;BMP_temperature;BMP_pressure;BME280_temperature;BME280_humidity;BME280_pressure;Samples;Min_cycle;Max_cycle;Signal;HPM_P1;HPM_P2
2023/09/21 00:01:43;;;;;;;3.78;2.38;;;18.40;99.90;;;;;;5033336;28;20148;-71
2023/09/21 00:04:09;;;;;;;2.60;1.85;;;18.40;99.90;;;;;;5034087;28;20049;-71
2023/09/21 00:06:36;;;;;;;3.80;2.10;;;18.50;99.90;;;;;;5033665;28;20041;-70
2023/09/21 00:09:03;;;;;;;3.30;2.28;;;18.40;99.90;;;;;;5034979;28;20049;-70
2023/09/21 00:11:30;;;;;;;4.65;2.47;;;18.40;99.90;;;;;;5034578;28;20041;-70
2023/09/21 00:13:56;;;;;;;3.65;2.10;;;18.40;99.90;;;;;;5034455;28;20426;-71
2023/09/21 00:16:25;;;;;;;4.70;2.13;;;18.30;99.90;;;;;;5034511;28;20100;-70
2023/09/21 00:18:51;;;;;;;3.25;2.42;;;18.30;99.90;;;;;;5034377;28;20046;-71
2023/09/21 00:21:17;;;;;;;4.15;2.30;;;18.30;99.90;;;;;;5034463;28;20054;-71
2023/09/21 00:23:47;;;;;;;2.03;1.85;;;18.30;99.90;;;;;;5033939;28;20061;-71
2023/09/21 00:26:14;;;;;;;4.65;2.35;;;18.30;99.90;;;;;;5033951;28;20049;-71
2023/09/21 00:28:41;;;;;;;3.20;2.17;;;18.30;99.90;;;;;;5034087;28;20053;-71
2023/09/21 00:31:06;;;;;;;3.85;2.40;;;18.30;99.90;;;;;;5034266;28;20046;-71
2023/09/21 00:33:33;;;;;;;3.58;2.30;;;18.30;99.90;;;;;;5016406;28;20048;-71
2023/09/21 00:35:59;;;;;;;3.95;2.55;;;18.20;99.90;;;;;;5034168;28;20533;-71
2023/09/21 00:38:25;;;;;;;5.63;2.45;;;18.30;99.90;;;;;;5033816;28;20081;-71
2023/09/21 00:41:03;;;;;;;4.72;2.47;;;18.30;99.90;;;;;;5035691;28;20060;-71
2023/09/21 00:43:29;;;;;;;3.55;2.65;;;18.30;99.90;;;;;;5035384;28;20053;-71
2023/09/21 00:45:57;;;;;;;3.92;2.40;;;18.30;99.90;;;;;;5033774;28;20050;-71
2023/09/21 00:48:25;;;;;;;2.60;2.17;;;18.30;99.90;;;;;;5032957;28;20049;-72
2023/09/21 00:50:54;;;;;;;3.65;2.65;;;18.40;99.90;;;;;;5033852;28;20045;-72
2023/09/21 00:53:22;;;;;;;3.63;2.50;;;18.40;99.90;;;;;;5032781;28;20053;-70
2023/09/21 00:56:02;;;;;;;4.03;2.40;;;18.30;99.90;;;;;;5034029;28;20053;-70
2023/09/21 00:58:30;;;;;;;4.00;2.55;;;18.40;99.90;;;;;;5033392;28;20362;-70
2023/09/21 01:00:58;;;;;;;4.22;2.40;;;18.40;99.90;;;;;;5033566;28;20041;-70
2023/09/21 01:03:24;;;;;;;5.88;2.45;;;18.40;99.90;;;;;;5033653;28;20077;-70
2023/09/21 01:05:50;;;;;;;4.72;2.60;;;18.40;99.90;;;;;;5033475;28;20496;-70
2023/09/21 01:08:18;;;;;;;4.60;2.60;;;18.40;99.90;;;;;;5033996;28;20053;-71
2023/09/21 01:10:49;;;;;;;3.78;2.58;;;18.40;99.90;;;;;;5033668;28;20370;-70
2023/09/21 01:13:19;;;;;;;5.10;2.20;;;18.40;99.90;;;;;;5034021;28;20076;-70
2023/09/21 01:16:02;;;;;;;2.28;2.08;;;18.40;99.90;;;;;;5032605;28;20443;-70
2023/09/21 01:18:28;;;;;;;3.60;2.53;;;18.50;99.90;;;;;;5032095;28;20087;-70
2023/09/21 01:21:04;;;;;;;6.07;2.30;;;18.40;99.90;;;;;;5033361;28;20077;-71
2023/09/21 01:23:32;;;;;;;3.72;2.40;;;18.40;99.90;;;;;;5033440;28;20111;-70
2023/09/21 01:26:01;;;;;;;4.38;2.40;;;18.40;99.90;;;;;;5031984;28;20053;-70
2023/09/21 01:28:29;;;;;;;3.40;2.55;;;18.40;99.90;;;;;;5033281;28;20045;-70
2023/09/21 01:30:58;;;;;;;8.60;2.65;;;18.40;99.90;;;;;;5031927;28;20125;-70
2023/09/21 01:33:24;;;;;;;2.58;2.38;;;18.40;99.90;;;;;;5031788;28;20121;-69
2023/09/21 01:35:50;;;;;;;3.67;2.63;;;18.40;99.90;;;;;;5032863;28;20053;-70
2023/09/21 01:38:17;;;;;;;3.55;2.47;;;18.40;99.90;;;;;;5033130;28;20165;-70
2023/09/21 01:40:43;;;;;;;3.67;2.30;;;18.30;99.90;;;;;;5031740;28;20087;-70
2023/09/21 01:43:11;;;;;;;5.07;2.80;;;18.30;99.90;;;;;;5032430;28;20040;-71
2023/09/21 01:45:39;;;;;;;4.88;2.70;;;18.30;99.90;;;;;;5032894;28;20050;-70
2023/09/21 01:48:09;;;;;;;4.05;2.55;;;18.30;99.90;;;;;;5031582;28;20046;-70
2023/09/21 01:50:49;;;;;;;3.45;2.42;;;18.30;99.90;;;;;;5032660;28;20048;-70
2023/09/21 01:53:16;;;;;;;4.30;2.15;;;18.30;99.90;;;;;;5032064;28;20048;-71
2023/09/21 01:55:43;;;;;;;2.92;2.47;;;18.30;99.90;;;;;;5032710;28;20052;-71
2023/09/21 01:58:12;;;;;;;3.17;2.50;;;18.40;99.90;;;;;;5032578;28;20493;-70
2023/09/21 02:00:39;;;;;;;3.25;2.50;;;18.40;99.90;;;;;;5032682;28;20087;-70
2023/09/21 02:03:08;;;;;;;2.97;2.13;;;18.40;99.90;;;;;;5032564;28;20119;-70
2023/09/21 02:05:35;;;;;;;4.88;2.67;;;18.50;99.90;;;;;;5031930;28;20370;-70
2023/09/21 02:08:04;;;;;;;3.88;2.35;;;18.50;99.90;;;;;;5032792;28;20045;-69
2023/09/21 02:10:31;;;;;;;4.10;2.45;;;18.50;99.90;;;;;;5032708;28;20052;-70
2023/09/21 02:13:01;;;;;;;4.25;2.30;;;18.50;99.90;;;;;;5031706;28;20120;-70
2023/09/21 02:15:27;;;;;;;4.03;2.50;;;18.50;99.90;;;;;;5032812;28;20042;-70
2023/09/21 02:17:55;;;;;;;3.15;2.38;;;18.50;99.90;;;;;;5033052;28;20053;-70
2023/09/21 02:20:28;;;;;;;2.33;2.00;;;18.50;99.90;;;;;;5032410;28;20057;-70
2023/09/21 02:22:58;;;;;;;2.70;2.20;;;18.50;99.90;;;;;;5032192;28;20464;-70
2023/09/21 02:25:25;;;;;;;2.30;2.10;;;18.60;99.90;;;;;;5032374;28;20057;-70
2023/09/21 02:27:51;;;;;;;3.38;2.60;;;18.50;99.90;;;;;;5031997;28;20484;-70
2023/09/21 02:30:21;;;;;;;3.67;2.40;;;18.50;99.90;;;;;;5032712;28;20107;-70
2023/09/21 02:32:51;;;;;;;4.32;2.53;;;18.50;99.90;;;;;;5032314;28;20061;-70
2023/09/21 02:35:27;;;;;;;3.25;2.65;;;18.50;99.90;;;;;;5032190;28;20060;-70
2023/09/21 02:37:54;;;;;;;4.68;2.40;;;18.50;99.90;;;;;;5032823;28;20083;-70
2023/09/21 02:40:22;;;;;;;3.85;2.42;;;18.50;99.90;;;;;;5032172;28;20061;-70
2023/09/21 02:42:52;;;;;;;5.65;2.63;;;18.60;99.90;;;;;;5032098;28;20049;-70
2023/09/21 02:45:21;;;;;;;7.90;2.40;;;18.50;99.90;;;;;;5032157;28;20052;-70
2023/09/21 02:47:47;;;;;;;3.42;2.30;;;18.50;99.90;;;;;;5031939;28;20421;-70
2023/09/21 02:50:15;;;;;;;3.53;2.35;;;18.50;99.90;;;;;;5034373;28;20041;-70
2023/09/21 02:52:46;;;;;;;3.38;2.30;;;18.50;99.90;;;;;;5035358;28;20120;-70
2023/09/21 02:55:20;;;;;;;2.70;2.05;;;18.50;99.90;;;;;;5036001;28;20080;-69
2023/09/21 02:57:49;;;;;;;2.50;2.13;;;18.50;99.90;;;;;;5036084;28;20107;-82
2023/09/21 03:00:21;;;;;;;2.20;1.98;;;18.50;99.90;;;;;;5035134;28;20413;-80
2023/09/21 03:02:50;;;;;;;2.83;2.47;;;18.50;99.90;;;;;;5036358;28;20132;-80
2023/09/21 03:05:18;;;;;;;4.43;2.28;;;18.50;99.90;;;;;;5035715;28;20132;-80
2023/09/21 03:07:45;;;;;;;2.10;2.00;;;18.50;99.90;;;;;;5036178;28;20124;-80
2023/09/21 03:10:12;;;;;;;3.05;1.90;;;18.50;99.90;;;;;;5035542;28;20053;-80
2023/09/21 03:12:38;;;;;;;3.55;2.00;;;18.50;99.90;;;;;;5034624;28;20378;-80
2023/09/21 03:15:09;;;;;;;2.22;1.90;;;18.40;99.90;;;;;;5035311;28;20128;-81
2023/09/21 03:17:40;;;;;;;2.58;1.80;;;18.50;99.90;;;;;;5035699;28;20045;-80
2023/09/21 03:20:26;;;;;;;3.08;2.08;;;18.50;99.90;;;;;;5035688;28;20084;-81
2023/09/21 03:22:53;;;;;;;2.72;2.03;;;18.50;99.90;;;;;;5035227;28;20041;-80
2023/09/21 03:25:25;;;;;;;2.80;1.90;;;18.40;99.90;;;;;;5035278;28;20103;-79
2023/09/21 03:27:52;;;;;;;4.10;2.43;;;18.40;99.90;;;;;;5035061;28;20085;-80
2023/09/21 03:30:19;;;;;;;2.83;2.03;;;18.30;99.90;;;;;;5034885;28;20042;-80
2023/09/21 03:32:45;;;;;;;3.63;2.50;;;18.20;99.90;;;;;;5035512;28;20111;-80
2023/09/21 03:35:11;;;;;;;3.42;1.85;;;18.20;99.90;;;;;;5033982;28;20057;-80
2023/09/21 03:37:47;;;;;;;2.88;2.22;;;18.10;99.90;;;;;;5035381;28;20103;-80
2023/09/21 03:40:13;;;;;;;3.50;2.20;;;18.10;99.90;;;;;;5034883;28;20037;-79
2023/09/21 03:42:41;;;;;;;2.28;1.80;;;18.10;99.90;;;;;;5034882;28;20076;-80
2023/09/21 03:45:08;;;;;;;5.95;2.67;;;18.00;99.90;;;;;;5035131;28;20048;-80
2023/09/21 03:47:34;;;;;;;6.00;2.40;;;18.00;99.90;;;;;;5034967;28;20060;-79
2023/09/21 03:50:01;;;;;;;6.07;2.30;;;18.00;99.90;;;;;;5034843;28;20390;-79
2023/09/21 03:52:27;;;;;;;3.08;2.67;;;18.00;99.90;;;;;;5034697;28;20398;-80
2023/09/21 03:54:54;;;;;;;2.22;1.90;;;17.90;99.90;;;;;;5034352;28;20355;-80
2023/09/21 03:57:20;;;;;;;4.43;2.42;;;18.00;99.90;;;;;;5034859;28;20061;-80
2023/09/21 03:59:46;;;;;;;4.50;2.20;;;18.00;99.90;;;;;;5016826;28;20497;-79
2023/09/21 04:02:14;;;;;;;2.38;1.88;;;18.00;99.90;;;;;;5034554;28;20049;-80
2023/09/21 04:04:40;;;;;;;3.90;2.10;;;18.00;99.90;;;;;;5034545;28;20068;-80
2023/09/21 04:07:07;;;;;;;3.78;2.38;;;18.00;99.90;;;;;;5035025;28;20061;-79
2023/09/21 04:09:34;;;;;;;3.17;2.30;;;18.00;99.90;;;;;;5034104;28;20449;-80
2023/09/21 04:12:00;;;;;;;3.53;2.40;;;17.60;99.90;;;;;;5033179;28;20509;-80
2023/09/21 04:14:27;;;;;;;2.25;1.95;;;18.00;99.90;;;;;;5033531;28;20049;-79
2023/09/21 04:16:56;;;;;;;2.28;2.08;;;18.00;99.90;;;;;;5034035;28;20049;-80
2023/09/21 04:19:24;;;;;;;3.35;2.28;;;18.00;99.90;;;;;;5034228;28;20061;-80
2023/09/21 04:21:50;;;;;;;4.68;2.55;;;18.00;99.90;;;;;;5016708;28;20052;-79
2023/09/21 04:24:19;;;;;;;4.85;2.30;;;18.00;99.90;;;;;;5034224;28;20064;-80
2023/09/21 04:26:44;;;;;;;3.30;2.20;;;18.00;99.90;;;;;;5032828;28;20049;-80
2023/09/21 04:29:11;;;;;;;3.53;1.98;;;18.00;99.90;;;;;;5034025;28;20160;-80
2023/09/21 04:31:38;;;;;;;2.50;2.08;;;18.00;99.90;;;;;;5016830;28;20049;-79
2023/09/21 04:34:04;;;;;;;2.90;2.30;;;18.00;99.90;;;;;;5034155;28;20046;-80
2023/09/21 04:36:30;;;;;;;3.25;2.25;;;18.00;99.90;;;;;;5032924;28;20057;-80
2023/09/21 04:38:56;;;;;;;2.45;2.25;;;18.00;99.90;;;;;;5034015;28;20057;-80
2023/09/21 04:41:22;;;;;;;2.13;1.98;;;18.00;99.90;;;;;;5033286;28;20121;-80
2023/09/21 04:43:48;;;;;;;5.68;2.38;;;18.00;99.90;;;;;;5032800;28;20462;-80
2023/09/21 04:46:14;;;;;;;2.97;2.50;;;18.00;99.90;;;;;;5032463;28;20051;-80
2023/09/21 04:48:41;;;;;;;3.38;2.40;;;18.10;99.90;;;;;;5033616;28;20116;-80
2023/09/21 04:51:11;;;;;;;6.93;2.35;;;18.00;99.90;;;;;;5033576;28;20060;-80
2023/09/21 04:53:37;;;;;;;3.03;2.08;;;18.00;99.90;;;;;;5033642;28;20125;-80
2023/09/21 04:56:03;;;;;;;2.65;1.90;;;18.00;99.90;;;;;;5033071;28;20052;-79
2023/09/21 04:58:29;;;;;;;3.28;2.22;;;18.00;99.90;;;;;;5033400;28;20470;-80
2023/09/21 05:00:54;;;;;;;3.00;2.30;;;18.00;99.90;;;;;;5032555;28;20045;-80
2023/09/21 05:03:20;;;;;;;3.67;2.33;;;17.90;99.90;;;;;;5032159;28;20081;-80
2023/09/21 05:05:47;;;;;;;2.40;2.20;;;18.00;99.90;;;;;;5033396;28;20056;-79
2023/09/21 05:08:13;;;;;;;3.08;2.33;;;18.00;99.90;;;;;;5016051;28;20057;-79
2023/09/21 05:10:41;;;;;;;6.18;2.72;;;18.00;99.90;;;;;;5033586;28;20485;-80
2023/09/21 05:13:06;;;;;;;3.70;3.35;;;18.00;99.90;;;;;;5032726;28;20033;-79
2023/09/21 05:15:32;;;;;;;4.60;2.42;;;18.00;99.90;;;;;;5033320;28;20375;-79
2023/09/21 05:17:58;;;;;;;5.15;2.22;;;18.00;99.90;;;;;;5033090;28;20145;-81
2023/09/21 05:20:23;;;;;;;5.38;2.60;;;18.00;99.90;;;;;;5032816;28;20144;-80
2023/09/21 05:22:51;;;;;;;5.13;2.53;;;18.00;99.90;;;;;;5033418;28;20041;-78
2023/09/21 05:25:17;;;;;;;3.95;2.78;;;18.00;99.90;;;;;;5033648;28;20068;-79
2023/09/21 05:27:43;;;;;;;2.90;2.45;;;18.10;99.90;;;;;;5033032;28;20056;-80
2023/09/21 05:30:09;;;;;;;3.85;2.20;;;18.10;99.90;;;;;;5031715;28;20049;-78
2023/09/21 05:32:35;;;;;;;2.15;1.77;;;18.20;99.90;;;;;;5033682;28;20115;-79
2023/09/21 05:35:02;;;;;;;5.00;2.28;;;18.20;99.90;;;;;;5033162;28;20045;-79
2023/09/21 05:37:29;;;;;;;3.10;2.17;;;18.30;99.90;;;;;;5032797;28;20481;-77
2023/09/21 05:39:55;;;;;;;2.70;2.25;;;18.40;99.90;;;;;;5033420;28;20440;-80
2023/09/21 05:42:23;;;;;;;5.57;2.20;;;18.40;99.90;;;;;;5032792;28;20083;-81
2023/09/21 05:44:49;;;;;;;4.25;2.17;;;18.50;99.90;;;;;;5032419;28;20053;-80
2023/09/21 05:47:15;;;;;;;3.88;2.25;;;18.50;99.90;;;;;;5033066;28;20156;-80
2023/09/21 05:49:41;;;;;;;5.22;2.50;;;18.60;99.90;;;;;;5032481;28;20076;-80
2023/09/21 05:52:13;;;;;;;2.92;2.05;;;18.60;99.90;;;;;;5032560;28;20049;-80
2023/09/21 05:54:40;;;;;;;2.97;2.05;;;18.60;99.90;;;;;;5032806;28;20116;-81
2023/09/21 05:57:06;;;;;;;2.63;2.30;;;18.70;99.90;;;;;;5032578;28;20049;-81
2023/09/21 05:59:31;;;;;;;4.00;2.42;;;18.70;99.90;;;;;;5031683;28;20123;-80
2023/09/21 06:01:58;;;;;;;3.90;2.00;;;18.80;99.90;;;;;;5032746;28;20451;-81
2023/09/21 06:04:24;;;;;;;2.83;2.17;;;18.80;99.90;;;;;;5033063;28;20128;-79
2023/09/21 06:06:51;;;;;;;3.38;2.35;;;18.90;99.90;;;;;;5031590;28;20087;-81
2023/09/21 06:09:22;;;;;;;2.47;2.15;;;18.90;99.90;;;;;;5032847;28;20052;-81
2023/09/21 06:11:48;;;;;;;1.75;1.65;;;19.00;99.90;;;;;;5032965;28;20045;-81
2023/09/21 06:14:15;;;;;;;5.15;2.10;;;19.00;99.90;;;;;;5032385;28;20379;-81
2023/09/21 06:16:42;;;;;;;3.17;1.90;;;19.10;99.90;;;;;;5032459;28;20053;-81
2023/09/21 06:19:09;;;;;;;3.03;2.22;;;19.10;99.90;;;;;;5031493;28;20061;-80
2023/09/21 06:21:35;;;;;;;4.22;2.10;;;19.10;99.90;;;;;;5032307;28;20060;-81
2023/09/21 06:24:03;;;;;;;3.20;2.22;;;19.10;99.90;;;;;;5032972;28;20065;-82
2023/09/21 06:26:29;;;;;;;2.28;2.08;;;19.10;99.90;;;;;;5036620;28;20150;-80
2023/09/21 06:28:55;;;;;;;2.65;2.42;;;19.10;99.90;;;;;;5036815;28;20132;-80
2023/09/21 06:31:21;;;;;;;2.17;2.00;;;19.10;99.90;;;;;;5035678;28;20088;-80
2023/09/21 06:33:46;;;;;;;3.30;1.90;;;19.10;99.90;;;;;;5036721;28;20379;-80
2023/09/21 06:36:18;;;;;;;3.25;2.50;;;19.20;99.90;;;;;;5036274;28;20099;-82
2023/09/21 06:38:44;;;;;;;2.92;2.03;;;19.20;99.90;;;;;;5036915;28;20049;-81
2023/09/21 06:41:10;;;;;;;3.88;2.30;;;19.20;99.90;;;;;;5035448;28;20049;-80
2023/09/21 06:43:38;;;;;;;4.07;2.50;;;19.20;99.90;;;;;;5036250;28;20111;-81
2023/09/21 06:46:07;;;;;;;2.97;2.20;;;19.20;99.90;;;;;;5036465;28;20050;-79
2023/09/21 06:48:33;;;;;;;3.92;2.42;;;19.30;99.90;;;;;;5036197;28;20504;-82
2023/09/21 06:50:58;;;;;;;2.72;2.08;;;19.20;99.90;;;;;;5036525;28;20050;-81
2023/09/21 06:53:24;;;;;;;2.63;2.20;;;19.30;99.90;;;;;;5036081;28;20037;-79
2023/09/21 06:55:50;;;;;;;4.40;2.30;;;19.30;99.90;;;;;;5035166;28;20183;-81
2023/09/21 06:58:16;;;;;;;3.72;2.33;;;19.30;99.90;;;;;;5035126;28;20496;-82
2023/09/21 07:00:42;;;;;;;2.80;2.40;;;19.30;99.90;;;;;;5035654;28;20087;-80
2023/09/21 07:03:10;;;;;;;4.82;2.60;;;19.30;99.90;;;;;;5035706;28;20164;-81
2023/09/21 07:05:36;;;;;;;3.65;2.50;;;19.20;99.90;;;;;;5036399;28;20138;-83
2023/09/21 07:08:02;;;;;;;3.35;2.30;;;19.20;99.90;;;;;;5036227;28;20041;-81
2023/09/21 07:10:28;;;;;;;2.90;2.55;;;19.20;99.90;;;;;;5035963;28;20139;-81
2023/09/21 07:12:54;;;;;;;4.28;2.28;;;19.20;99.90;;;;;;5035985;28;20049;-81
2023/09/21 07:15:21;;;;;;;3.63;2.28;;;19.20;99.90;;;;;;5034373;28;20053;-82
2023/09/21 07:17:47;;;;;;;3.35;2.35;;;19.10;99.90;;;;;;5036213;28;20143;-81
2023/09/21 07:20:12;;;;;;;5.10;2.35;;;19.20;99.90;;;;;;5035679;28;20041;-81
2023/09/21 07:22:38;;;;;;;7.97;2.47;;;19.10;99.90;;;;;;5035428;28;20399;-77
2023/09/21 07:25:04;;;;;;;3.47;2.78;;;19.10;99.90;;;;;;5034078;28;20451;-77
2023/09/21 07:27:30;;;;;;;3.78;2.53;;;19.10;99.90;;;;;;5034492;28;20041;-77
2023/09/21 07:29:56;;;;;;;3.47;2.35;;;19.00;99.90;;;;;;5035463;28;20507;-78
2023/09/21 07:32:25;;;;;;;2.97;2.22;;;19.00;99.90;;;;;;5035346;28;20049;-77
2023/09/21 07:34:51;;;;;;;3.42;2.50;;;19.00;99.90;;;;;;5034894;28;20509;-77
2023/09/21 07:37:17;;;;;;;2.38;2.17;;;19.00;99.90;;;;;;5035597;28;20053;-77
2023/09/21 07:39:43;;;;;;;3.95;2.80;;;19.00;99.90;;;;;;5034949;28;20045;-78
2023/09/21 07:42:09;;;;;;;3.65;2.55;;;19.00;99.90;;;;;;5034862;28;20038;-77
2023/09/21 07:44:35;;;;;;;4.28;2.60;;;19.00;99.90;;;;;;5034804;28;20080;-77
2023/09/21 07:47:00;;;;;;;4.13;2.55;;;18.90;99.90;;;;;;5033617;28;20049;-78
2023/09/21 07:49:26;;;;;;;3.78;2.45;;;19.00;99.90;;;;;;5034787;28;20045;-81
2023/09/21 07:51:55;;;;;;;4.97;2.50;;;19.10;99.90;;;;;;5034490;28;20556;-78
2023/09/21 07:54:21;;;;;;;3.92;2.63;;;19.10;99.90;;;;;;5034758;28;20529;-79
2023/09/21 07:56:48;;;;;;;6.30;2.80;;;19.20;99.90;;;;;;5035123;28;20056;-79
2023/09/21 07:59:13;;;;;;;4.93;3.08;;;19.20;99.90;;;;;;5035075;28;20063;-78
2023/09/21 08:01:40;;;;;;;4.63;2.28;;;19.20;99.90;;;;;;5034765;28;20516;-78
2023/09/21 08:04:07;;;;;;;4.72;2.45;;;19.30;99.90;;;;;;5034755;28;20060;-79
2023/09/21 08:06:33;;;;;;;4.85;2.72;;;19.30;99.90;;;;;;5035102;28;20045;-79
2023/09/21 08:08:59;;;;;;;4.03;2.50;;;19.20;99.90;;;;;;5034330;28;20049;-78
2023/09/21 08:11:25;;;;;;;3.30;2.40;;;19.30;99.90;;;;;;5034390;28;20374;-78
2023/09/21 08:13:50;;;;;;;3.67;2.60;;;19.20;99.90;;;;;;5034594;28;20060;-78
2023/09/21 08:16:16;;;;;;;4.10;2.50;;;19.20;99.90;;;;;;5034454;28;20042;-79
2023/09/21 08:18:42;;;;;;;5.00;2.50;;;19.20;99.90;;;;;;5034650;28;20063;-80
2023/09/21 08:21:09;;;;;;;3.58;2.55;;;19.20;99.90;;;;;;5034469;28;20048;-79
2023/09/21 08:23:36;;;;;;;3.60;2.47;;;19.20;99.90;;;;;;5033410;28;20060;-79
2023/09/21 08:26:03;;;;;;;2.70;2.25;;;19.20;99.90;;;;;;5034735;28;20127;-79
2023/09/21 08:28:30;;;;;;;6.60;2.60;;;19.20;99.90;;;;;;5034899;28;20107;-80
2023/09/21 08:30:57;;;;;;;3.55;2.40;;;19.10;99.90;;;;;;5034800;28;20068;-79
2023/09/21 08:33:23;;;;;;;3.17;2.88;;;19.10;99.90;;;;;;5034313;28;20450;-78
2023/09/21 08:35:49;;;;;;;5.63;2.55;;;19.10;99.90;;;;;;5034155;28;20077;-79
2023/09/21 08:38:17;;;;;;;3.45;3.03;;;19.20;99.90;;;;;;5033139;28;20053;-80
2023/09/21 08:40:46;;;;;;;7.03;2.88;;;19.20;99.90;;;;;;5034131;28;20124;-80
2023/09/21 08:43:20;;;;;;;3.10;2.58;;;19.20;99.90;;;;;;5033986;28;20041;-79
2023/09/21 08:45:49;;;;;;;4.57;2.97;;;19.20;99.90;;;;;;5033854;28;20493;-79
2023/09/21 08:48:18;;;;;;;3.78;2.70;;;19.20;99.90;;;;;;5033045;28;20049;-78
2023/09/21 08:50:44;;;;;;;4.72;3.22;;;19.10;99.90;;;;;;5033930;28;20504;-79
2023/09/21 08:53:13;;;;;;;5.57;3.30;;;19.10;99.90;;;;;;5033768;28;20046;-80
2023/09/21 08:55:41;;;;;;;3.53;2.90;;;19.00;99.90;;;;;;5032841;28;20133;-79
2023/09/21 08:58:09;;;;;;;3.95;2.80;;;18.90;99.90;;;;;;5032935;28;20139;-78
2023/09/21 09:00:36;;;;;;;5.28;3.17;;;18.90;99.90;;;;;;5032707;28;20053;-77
2023/09/21 09:03:03;;;;;;;4.18;2.90;;;18.90;99.90;;;;;;5033575;28;20041;-78
2023/09/21 09:05:30;;;;;;;3.80;2.67;;;18.80;99.90;;;;;;5032311;28;20049;-76
2023/09/21 09:07:57;;;;;;;4.43;2.95;;;18.70;99.90;;;;;;5033867;28;20049;-78
2023/09/21 09:10:25;;;;;;;3.55;3.05;;;18.60;99.90;;;;;;5033839;28;20049;-78
2023/09/21 09:13:05;;;;;;;4.47;3.25;;;18.60;99.90;;;;;;5032472;28;20057;-78
2023/09/21 09:15:37;;;;;;;4.68;3.22;;;18.60;99.90;;;;;;5033570;28;20049;-78
2023/09/21 09:18:04;;;;;;;3.92;2.90;;;18.50;99.90;;;;;;5033816;28;20126;-79
2023/09/21 09:20:30;;;;;;;4.65;3.30;;;18.50;99.90;;;;;;5033915;28;20079;-78
2023/09/21 09:22:56;;;;;;;4.50;3.05;;;18.50;99.90;;;;;;5032985;28;20033;-80
2023/09/21 09:25:23;;;;;;;5.63;3.30;;;18.50;99.90;;;;;;5032309;28;20124;-78
2023/09/21 09:28:16;;;;;;;3.60;2.72;;;18.50;99.90;;;;;;5033184;28;20056;-80
2023/09/21 09:30:45;;;;;;;;;;;18.40;99.90;;;;;;5033682;28;20045;-81
2023/09/21 09:33:15;;;;;;;5.05;3.17;;;18.30;99.90;;;;;;5031822;28;19924;-80
2023/09/21 09:35:41;;;;;;;4.35;3.17;;;18.30;99.90;;;;;;5032646;28;20079;-81
2023/09/21 09:38:11;;;;;;;5.13;2.92;;;18.30;99.90;;;;;;5032652;28;20454;-81
2023/09/21 09:40:37;;;;;;;3.65;3.22;;;18.30;99.90;;;;;;5033255;28;20096;-80
2023/09/21 09:43:07;;;;;;;4.20;3.10;;;18.20;99.90;;;;;;5031656;28;20474;-81
2023/09/21 09:45:38;;;;;;;4.15;2.95;;;18.20;99.90;;;;;;5032916;28;20172;-81
2023/09/21 09:48:11;;;;;;;5.18;3.47;;;18.20;99.90;;;;;;5033375;28;20065;-80
2023/09/21 09:50:41;;;;;;;5.57;3.33;;;18.20;99.90;;;;;;5032716;28;20475;-81
2023/09/21 09:53:11;;;;;;;5.28;3.25;;;18.20;99.90;;;;;;5032925;28;20051;-79
2023/09/21 09:55:41;;;;;;;4.78;3.33;;;18.10;99.90;;;;;;5033154;28;20046;-80
2023/09/21 09:58:09;;;;;;;4.38;3.30;;;18.10;99.90;;;;;;5033149;28;20120;-81
2023/09/21 10:00:37;;;;;;;4.05;3.47;;;18.10;99.90;;;;;;5032612;28;20051;-79
2023/09/21 10:03:07;;;;;;;3.58;3.25;;;18.00;99.90;;;;;;5032596;28;20052;-80
2023/09/21 10:05:36;;;;;;;2.40;2.20;;;18.00;99.90;;;;;;5032687;28;20048;-81
2023/09/21 10:08:03;;;;;;;2.28;1.42;;;17.90;99.90;;;;;;5031928;28;20111;-81
2023/09/21 10:10:54;;;;;;;2.05;1.20;;;17.60;99.90;;;;;;5031577;28;20053;-81
2023/09/21 10:13:25;;;;;;;1.05;0.90;;;17.60;99.90;;;;;;5032343;28;20121;-81
2023/09/21 10:16:01;;;;;;;1.17;1.02;;;17.40;99.90;;;;;;5032602;28;20053;-81
2023/09/21 10:18:37;;;;;;;1.38;1.23;;;17.20;99.90;;;;;;5032609;28;20538;-81
2023/09/21 10:21:23;;;;;;;2.63;1.08;;;17.10;99.90;;;;;;5015257;28;20128;-81
2023/09/21 10:24:26;;;;;;;1.92;0.80;;;17.10;99.90;;;;;;5031489;28;20101;-79
2023/09/21 10:26:53;;;;;;;1.65;1.10;;;17.10;99.90;;;;;;4971233;28;20054;-81
2023/09/21 10:29:21;;;;;;;2.00;1.20;;;17.00;99.90;;;;;;5021108;28;20065;-79
2023/09/21 10:31:55;;;;;;;1.50;1.08;;;17.10;99.90;;;;;;5031092;28;20048;-80
2023/09/21 10:34:24;;;;;;;2.35;1.38;;;17.10;99.90;;;;;;5032890;28;20042;-81
2023/09/21 10:37:06;;;;;;;1.20;1.05;;;17.10;99.90;;;;;;5032520;28;20065;-81
2023/09/21 10:39:33;;;;;;;2.28;1.30;;;17.40;99.90;;;;;;5032681;28;20049;-79
2023/09/21 10:42:04;;;;;;;0.80;0.80;;;17.10;99.90;;;;;;5032284;28;20052;-80
2023/09/21 10:44:52;;;;;;;2.70;1.20;;;17.10;99.90;;;;;;5032762;28;20079;-79
2023/09/21 10:47:41;;;;;;;0.60;0.60;;;17.00;99.90;;;;;;5032420;28;20054;-81
2023/09/21 10:50:11;;;;;;;2.88;1.00;;;17.00;99.90;;;;;;5032356;28;20045;-81
2023/09/21 10:52:41;;;;;;;1.30;1.20;;;17.00;99.90;;;;;;5032253;28;20038;-82
2023/09/21 10:55:12;;;;;;;1.88;0.70;;;16.90;99.90;;;;;;5036691;28;20050;-80
2023/09/21 10:57:39;;;;;;;1.08;0.88;;;17.00;99.90;;;;;;5041568;28;20060;-80
2023/09/21 11:00:15;;;;;;;1.20;0.90;;;16.90;99.90;;;;;;5040687;28;20086;-79
2023/09/21 11:02:42;;;;;;;1.23;0.98;;;16.90;99.90;;;;;;5041510;28;20091;-79
2023/09/21 11:05:09;;;;;;;0.70;0.70;;;17.00;99.90;;;;;;5053347;28;20068;-79
2023/09/21 11:07:36;;;;;;;0.88;0.85;;;17.00;99.90;;;;;;5041727;28;20044;-80
2023/09/21 11:10:06;;;;;;;1.02;0.90;;;17.00;99.90;;;;;;5032860;28;20095;-82
2023/09/21 11:12:32;;;;;;;1.63;0.75;;;17.10;99.90;;;;;;5036223;28;20046;-80
2023/09/21 11:14:59;;;;;;;1.65;0.98;;;17.10;99.90;;;;;;5035626;28;20044;-80
2023/09/21 11:17:24;;;;;;;1.45;0.95;;;17.10;99.90;;;;;;5035596;28;20064;-81
2023/09/21 11:19:50;;;;;;;1.90;1.10;;;17.20;99.90;;;;;;5036063;28;20474;-80
2023/09/21 11:22:16;;;;;;;0.80;0.80;;;17.20;99.90;;;;;;5035894;28;20038;-80
2023/09/21 11:24:42;;;;;;;0.90;0.90;;;17.20;99.90;;;;;;5035631;28;20057;-81
2023/09/21 11:27:10;;;;;;;1.52;0.80;;;17.30;99.90;;;;;;5035563;28;20107;-80
2023/09/21 11:29:40;;;;;;;1.63;1.00;;;17.30;99.90;;;;;;5035392;28;20045;-80
2023/09/21 11:32:22;;;;;;;2.13;0.98;;;17.30;99.90;;;;;;5035053;28;20422;-80
2023/09/21 11:34:56;;;;;;;1.92;0.95;;;17.90;99.90;;;;;;5036026;28;20081;-81
2023/09/21 11:37:22;;;;;;;1.63;1.20;;;17.30;99.90;;;;;;5035365;28;20057;-81
2023/09/21 11:39:49;;;;;;;0.95;0.68;;;17.20;99.90;;;;;;5035102;28;20080;-80
2023/09/21 11:42:19;;;;;;;1.50;0.98;;;17.20;99.90;;;;;;5035213;28;20088;-81
2023/09/21 11:44:49;;;;;;;0.90;0.90;;;17.20;99.90;;;;;;5035000;28;20072;-81
2023/09/21 11:47:15;;;;;;;1.92;0.95;;;17.20;99.90;;;;;;5035785;28;20115;-81
2023/09/21 11:49:42;;;;;;;1.60;1.02;;;17.30;99.90;;;;;;5035487;28;20465;-81
2023/09/21 11:52:15;;;;;;;2.03;1.38;;;17.40;99.90;;;;;;5034056;28;20119;-79
2023/09/21 11:54:41;;;;;;;2.53;1.23;;;17.40;99.90;;;;;;5035017;28;20060;-81
2023/09/21 11:57:09;;;;;;;2.15;1.52;;;17.40;99.90;;;;;;5035135;28;20057;-80
2023/09/21 11:59:39;;;;;;;2.53;1.40;;;17.50;99.90;;;;;;5035162;28;20064;-81
2023/09/21 12:02:09;;;;;;;2.40;1.30;;;17.60;99.90;;;;;;5033576;28;20045;-81
2023/09/21 12:04:39;;;;;;;1.73;1.20;;;17.60;99.90;;;;;;5034888;28;20045;-81
2023/09/21 12:07:09;;;;;;;1.33;1.23;;;17.60;99.90;;;;;;5034622;28;20080;-80
2023/09/21 12:09:42;;;;;;;1.58;1.10;;;17.60;99.90;;;;;;5035287;28;20065;-78
2023/09/21 12:12:09;;;;;;;2.15;1.10;;;17.40;99.90;;;;;;5034771;28;20052;-80
2023/09/21 12:14:36;;;;;;;1.23;0.98;;;17.40;99.90;;;;;;5034212;28;20062;-81
2023/09/21 12:17:19;;;;;;;2.00;1.10;;;17.40;99.90;;;;;;5034446;28;20132;-80
2023/09/21 12:19:45;;;;;;;0.95;0.90;;;17.40;99.90;;;;;;5034666;28;20061;-80
2023/09/21 12:22:12;;;;;;;2.75;1.13;;;17.40;99.90;;;;;;5034688;28;20045;-81
2023/09/21 12:24:37;;;;;;;1.10;1.00;;;17.30;99.90;;;;;;5034861;28;20053;-81
2023/09/21 12:27:06;;;;;;;1.30;1.20;;;17.30;99.90;;;;;;5034390;28;20191;-81
2023/09/21 12:29:33;;;;;;;1.02;0.70;;;17.30;99.90;;;;;;5034489;28;20118;-81
2023/09/21 12:32:04;;;;;;;1.30;1.13;;;17.30;99.90;;;;;;5034465;28;20049;-81
2023/09/21 12:34:31;;;;;;;2.22;1.20;;;17.30;99.90;;;;;;5034243;28;20482;-81
2023/09/21 12:36:57;;;;;;;1.92;1.17;;;17.30;99.90;;;;;;5034270;28;20111;-81
2023/09/21 12:39:26;;;;;;;0.60;0.60;;;17.30;99.90;;;;;;5034444;28;20045;-81
2023/09/21 12:41:52;;;;;;;1.17;0.90;;;17.40;99.90;;;;;;5033935;28;20128;-81
2023/09/21 12:44:20;;;;;;;1.15;1.00;;;17.40;99.90;;;;;;5034042;28;20486;-81
2023/09/21 12:46:46;;;;;;;1.02;0.90;;;17.50;99.90;;;;;;5033916;28;20049;-80
2023/09/21 12:49:13;;;;;;;3.67;1.13;;;17.50;99.90;;;;;;5033195;28;20063;-81
2023/09/21 12:51:39;;;;;;;1.25;0.88;;;17.50;99.90;;;;;;5033917;28;20486;-81
2023/09/21 12:54:08;;;;;;;0.90;0.90;;;17.50;99.90;;;;;;5033918;28;20042;-79